My Meet Scores
Ava Ciucci, Naperville Gymnastics Club - MyMeetScores.com
Top100 | Top Teams | Upcoming Meets | Completed Meets | Latest | Add Scores | Help| Support | Bookmark and Share

Ava Ciucci, Naperville Gymnastics Club
Personal Bests
LevelVault BarsBeamFloorAA
39.6509.300 9.2009.40037.450
49.1759.150 8.3009.07535.400
69.1259.450 8.7009.42536.325
XG9.4759.425 9.5259.35037.525
Meet Scores
Date Meet Team Session Level Division Vault Bars Beam Floor AA
2020-03-06 2020 Flip'r Invitational Naperville Gymnastics Club 2 6 CHILD 9.100 1 8.050 8 8.700 7T 9.425 3 35.275 7
2020-02-21 Kinetic Classic Naperville Gymnastics Club 01 6 Younger 9.125 14T 7.425 48 8.100 52 9.325 17T 33.975 49
2020-01-31 Buckeye Classic Naperville Gymnastics Club US2 6 A 9.100 10 0.000 0 8.600 11 8.900 14 26.600 14
2020-01-17 2020 Bravo Classic Naperville Gymnastics Club 11A 6 Child 9.100 6T 7.300 19 8.400 16 9.275 8 34.075 17
2020-01-10 Leenda's Island Adventure Naperville Gymnastics Club GG7 6 10 & Under 8.950 1 9.450 2T 8.600 9 9.325 2T 36.325 2
2019-12-07 Home for the Holidays 2019 Naperville Gymnastics Club 6 6 Younger 8.850 1 9.350 2 7.900 8 9.400 2T 35.500 7
2019-05-03 2019 Region 5 Xcel Championships Naperville Gymnastics Club 09O XG CH A 9.475 1 9.150 24 9.075 25T 8.350 39 36.050 26
2019-04-05 2019 Illinois XG, XP, XD State Championships Naperville Gymnastics Club 7 XG Ch A 9.425 1 9.425 8 9.100 9 9.350 7T 37.300 5
2019-03-08 Lucky Invite Naperville Gymnastics Club B03 XG Jr A 8.800 8T 8.800 18 8.250 20 9.200 13T 35.050 19
2019-03-01 NGCD Academy's 2019 Flip'r Invitational Naperville Gymnastics Club 2 XG Child 9.400 2T 9.350 6 9.525 2T 9.250 6 37.525 2
2019-02-23 Kinetic Classic 2019 Naperville Gymnastics Club 1 XG Younger 9.000 9 8.825 19T 8.600 20T 9.200 5T 35.625 16
2019-02-01 Wisconsin Dells Gymnastics Vacation Classic Naperville Gymnastics Club B7 4 Children 9.175 1 8.825 2 8.300 7 9.025 3 35.325 1
2018-12-14 2018 Aspire Classic Naperville Gymnastics Club 7A 4 Younger 9.050 1 9.150 1T 8.125 20 9.075 4T 35.400 6
2018-05-03 Illinois USA Gymnastics Level 3 State Championships Naperville Gymnastics Club 7 3 Ch D 9.650 7T 9.250 16 9.150 12T 9.400 8T 37.450 10
2018-03-09 Lucky Invitational Naperville Gymnastics Club B02 3 Jr A 9.400 4 9.300 5 9.000 6T 8.900 9 36.600 4
2018-03-02 2018 Flip'r Invitational Naperville Gymnastics Club 7 3 Child Age 7 9.350 6 9.150 2 9.200 1 9.075 4 36.775 1
2018-02-16 Big Classic Naperville Gymnastics Club 4B 3 Child A 9.375 3 8.925 6 8.500 6 9.325 1 36.125 3
2018-01-19 2018 Bravo Classic Naperville Gymnastics Club 8B 3 Child 9.600 3T 8.725 15 8.150 18 9.175 8T 35.650 14
2017-12-15 2017 Aspire Classic Naperville Gymnastics Club 9B 3 Younger 9.550 1 9.200 5T 8.550 10 8.350 12 35.650 8
2017-11-17 SCGA Classic Naperville Gymnastics Club 1 3 Child 9.175 4 8.800 5 8.200 8 8.650 7 34.825 5
Get your scores on
a t-shirt, pin, or hoodie

www.lazysuits.com